Time;durP1;ratioP1;P1;durP2;ratioP2;P2;SDS_P1;SDS_P2;PMS_P1;PMS_P2;Temp;Humidity;BMP_temperature;BMP_pressure;BME280_temperature;BME280_humidity;BME280_pressure;Samples;Min_cycle;Max_cycle;Signal;HPM_P1;HPM_P2
2021/05/25 00:00:19;;;;;;;5.28;3.03;;;9.80;99.90;;;;;;5028063;28;20041;-67
2021/05/25 00:02:47;;;;;;;3.45;3.15;;;9.80;99.90;;;;;;5029747;28;20033;-67
2021/05/25 00:05:16;;;;;;;4.22;2.72;;;9.70;99.90;;;;;;5031834;28;20052;-67
2021/05/25 00:07:42;;;;;;;3.53;2.25;;;9.70;99.90;;;;;;5030488;28;20046;-67
2021/05/25 00:10:09;;;;;;;4.93;2.28;;;9.70;99.90;;;;;;5027755;28;20053;-67
2021/05/25 00:12:35;;;;;;;2.67;2.40;;;9.70;99.90;;;;;;5026531;28;20033;-67
2021/05/25 00:15:06;;;;;;;3.63;2.53;;;9.60;99.90;;;;;;5034745;28;20083;-67
2021/05/25 00:17:32;;;;;;;4.63;2.85;;;9.60;99.90;;;;;;5023049;28;20037;-68
2021/05/25 00:19:58;;;;;;;4.70;3.10;;;9.60;99.90;;;;;;5026399;28;20137;-68
2021/05/25 00:22:24;;;;;;;4.00;3.00;;;9.60;99.90;;;;;;5025899;28;20072;-67
2021/05/25 00:24:51;;;;;;;4.03;2.92;;;9.60;99.90;;;;;;5034294;28;20462;-67
2021/05/25 00:27:17;;;;;;;5.82;2.97;;;9.60;99.90;;;;;;5019332;28;20132;-67
2021/05/25 00:29:43;;;;;;;4.57;3.20;;;9.60;99.90;;;;;;5026605;28;20514;-67
2021/05/25 00:32:09;;;;;;;4.95;3.67;;;9.50;99.90;;;;;;5030069;28;20048;-67
2021/05/25 00:34:35;;;;;;;5.05;3.45;;;9.50;99.90;;;;;;5027391;28;20409;-67
2021/05/25 00:37:01;;;;;;;4.82;3.42;;;9.50;99.90;;;;;;5023786;28;20041;-67
2021/05/25 00:39:26;;;;;;;5.13;3.85;;;9.50;99.90;;;;;;5030741;28;20035;-67
2021/05/25 00:41:53;;;;;;;3.97;3.58;;;9.50;99.90;;;;;;5031020;28;20037;-67
2021/05/25 00:44:19;;;;;;;5.90;3.90;;;9.50;99.90;;;;;;5029111;28;20103;-67
2021/05/25 00:46:45;;;;;;;6.25;4.60;;;9.50;99.90;;;;;;5024161;28;20506;-67
2021/05/25 00:49:11;;;;;;;6.07;3.85;;;9.40;99.90;;;;;;5025873;28;20037;-67
2021/05/25 00:51:38;;;;;;;7.53;4.88;;;9.40;99.90;;;;;;5037017;28;20033;-67
2021/05/25 00:54:05;;;;;;;10.63;4.85;;;9.40;99.90;;;;;;5028864;28;20044;-67
2021/05/25 00:56:31;;;;;;;6.18;4.07;;;9.40;99.90;;;;;;5029010;28;20041;-67
2021/05/25 00:58:57;;;;;;;7.70;4.88;;;9.40;99.90;;;;;;5033390;28;20108;-67
2021/05/25 01:01:23;;;;;;;9.38;4.90;;;9.40;99.90;;;;;;5027547;28;20132;-67
2021/05/25 01:03:48;;;;;;;4.60;4.20;;;9.40;99.90;;;;;;5022433;28;20045;-67
2021/05/25 01:06:14;;;;;;;7.32;4.78;;;9.30;99.90;;;;;;5030036;28;20584;-67
2021/05/25 01:08:40;;;;;;;6.35;4.60;;;9.40;99.90;;;;;;5032413;28;20080;-67
2021/05/25 01:11:10;;;;;;;7.20;5.28;;;9.40;99.90;;;;;;5030856;28;20061;-67
2021/05/25 01:13:51;;;;;;;12.30;6.40;;;9.40;99.90;;;;;;5025771;28;20337;-67
2021/05/25 01:16:17;;;;;;;6.95;5.30;;;9.40;99.90;;;;;;5030548;28;20059;-67
2021/05/25 01:18:44;;;;;;;7.13;5.75;;;9.40;99.90;;;;;;5027626;28;20284;-67
2021/05/25 01:21:12;;;;;;;7.97;5.95;;;9.40;99.90;;;;;;5027196;28;20176;-67
2021/05/25 01:23:39;;;;;;;8.40;5.85;;;9.30;99.90;;;;;;5022051;28;20112;-67
2021/05/25 01:26:06;;;;;;;6.57;5.63;;;9.40;99.90;;;;;;5032070;28;20042;-67
2021/05/25 01:28:33;;;;;;;8.23;6.45;;;9.30;99.90;;;;;;5028525;28;20045;-67
2021/05/25 01:31:00;;;;;;;12.68;7.40;;;9.30;99.90;;;;;;5016202;28;20054;-67
2021/05/25 01:33:29;;;;;;;8.07;6.47;;;9.30;99.90;;;;;;5034338;28;20042;-66
2021/05/25 01:36:00;;;;;;;10.10;7.28;;;9.30;99.90;;;;;;5024720;28;20041;-66
2021/05/25 01:38:28;;;;;;;10.52;7.93;;;9.30;99.90;;;;;;5028535;28;20042;-66
2021/05/25 01:40:56;;;;;;;11.48;6.53;;;9.30;99.90;;;;;;5022561;28;20120;-66
2021/05/25 01:43:23;;;;;;;13.38;8.57;;;9.30;99.90;;;;;;5025983;28;20327;-66
2021/05/25 01:45:48;;;;;;;9.45;7.90;;;9.40;99.90;;;;;;5031115;28;20343;-66
2021/05/25 01:48:15;;;;;;;9.73;8.00;;;9.40;99.90;;;;;;5024504;28;20107;-66
2021/05/25 01:50:41;;;;;;;14.30;7.95;;;9.40;99.90;;;;;;5022186;28;20381;-66
2021/05/25 01:53:13;;;;;;;12.80;9.07;;;9.40;99.90;;;;;;5035756;28;20033;-66
2021/05/25 01:55:51;;;;;;;16.20;10.77;;;9.40;99.90;;;;;;5026444;28;20591;-66
2021/05/25 01:58:27;;;;;;;20.50;10.63;;;9.40;99.90;;;;;;5024577;28;20042;-66
2021/05/25 02:00:56;;;;;;;14.20;11.18;;;9.40;99.90;;;;;;5021144;28;20041;-67
2021/05/25 02:03:23;;;;;;;14.73;10.90;;;9.50;99.90;;;;;;5028581;28;20325;-66
2021/05/25 02:05:49;;;;;;;12.75;10.63;;;9.50;99.90;;;;;;5027738;28;20037;-67
2021/05/25 02:08:17;;;;;;;22.75;12.73;;;9.50;99.90;;;;;;5029687;28;20557;-67
2021/05/25 02:10:46;;;;;;;16.98;11.15;;;9.50;99.90;;;;;;5025706;28;20074;-66
2021/05/25 02:13:18;;;;;;;15.00;11.63;;;9.50;99.90;;;;;;5035891;28;20041;-66
2021/05/25 02:15:46;;;;;;;16.58;12.63;;;9.50;99.90;;;;;;5021357;28;20068;-66
2021/05/25 02:18:23;;;;;;;18.58;13.40;;;9.50;99.90;;;;;;5019704;28;20405;-67
2021/05/25 02:20:51;;;;;;;18.25;13.57;;;9.40;99.90;;;;;;5027331;28;20099;-67
2021/05/25 02:23:17;;;;;;;17.58;12.88;;;9.50;99.90;;;;;;5034509;28;20037;-67
2021/05/25 02:25:45;;;;;;;18.45;13.68;;;9.50;99.90;;;;;;5025764;28;20032;-66
2021/05/25 02:28:11;;;;;;;17.05;12.85;;;9.50;99.90;;;;;;5018878;28;20061;-66
2021/05/25 02:30:38;;;;;;;17.60;13.15;;;9.50;99.90;;;;;;5027242;28;20498;-67
2021/05/25 02:33:07;;;;;;;17.73;13.25;;;9.50;99.90;;;;;;5027447;28;20084;-66
2021/05/25 02:35:34;;;;;;;20.75;14.18;;;9.50;99.90;;;;;;5026496;28;20048;-66
2021/05/25 02:38:00;;;;;;;22.23;15.10;;;9.50;99.90;;;;;;5019248;28;20725;-66
2021/05/25 02:40:26;;;;;;;23.92;14.75;;;9.60;99.90;;;;;;5035176;28;20056;-66
2021/05/25 02:42:53;;;;;;;24.17;15.60;;;9.50;99.90;;;;;;5022411;28;20132;-66
2021/05/25 02:45:19;;;;;;;26.52;15.82;;;9.50;99.90;;;;;;5028976;28;20056;-66
2021/05/25 02:47:44;;;;;;;21.60;15.32;;;9.50;99.90;;;;;;5024995;28;20037;-66
2021/05/25 02:50:11;;;;;;;20.05;14.68;;;9.50;99.90;;;;;;5038979;28;20099;-66
2021/05/25 02:52:42;;;;;;;28.73;16.23;;;9.50;99.90;;;;;;5022638;28;20404;-66
2021/05/25 02:55:11;;;;;;;18.48;15.68;;;9.50;99.90;;;;;;5032184;28;20041;-66
2021/05/25 02:57:37;;;;;;;17.75;15.43;;;9.50;99.90;;;;;;5017217;28;20057;-66
2021/05/25 03:00:15;;;;;;;18.48;15.38;;;9.50;99.90;;;;;;5034742;28;20040;-66
2021/05/25 03:02:41;;;;;;;19.63;15.15;;;9.50;99.90;;;;;;5017919;28;20052;-66
2021/05/25 03:05:09;;;;;;;20.60;15.00;;;9.50;99.90;;;;;;5030138;28;20472;-66
2021/05/25 03:07:35;;;;;;;19.85;14.57;;;9.50;99.90;;;;;;5025830;28;20043;-66
2021/05/25 03:10:01;;;;;;;18.67;14.32;;;9.50;99.90;;;;;;5033105;28;20083;-66
2021/05/25 03:12:27;;;;;;;19.90;14.90;;;9.50;99.90;;;;;;5022959;28;20037;-66
2021/05/25 03:14:53;;;;;;;17.58;14.43;;;9.50;99.90;;;;;;5024526;28;20475;-66
2021/05/25 03:17:22;;;;;;;20.58;15.05;;;9.50;99.90;;;;;;5033890;28;20053;-66
2021/05/25 03:19:48;;;;;;;16.42;13.23;;;9.50;99.90;;;;;;5019585;28;20048;-66
2021/05/25 03:22:14;;;;;;;16.27;13.35;;;9.50;99.90;;;;;;5028365;28;21760;-66
2021/05/25 03:24:39;;;;;;;16.50;13.30;;;9.50;99.90;;;;;;5027356;28;20497;-66
2021/05/25 03:27:05;;;;;;;12.77;11.48;;;9.40;99.90;;;;;;5017571;28;20494;-66
2021/05/25 03:29:31;;;;;;;8.50;6.20;;;9.40;99.90;;;;;;5019822;28;20048;-67
2021/05/25 03:31:58;;;;;;;4.32;3.28;;;9.40;99.90;;;;;;5032106;28;20049;-66
2021/05/25 03:34:23;;;;;;;5.13;2.03;;;9.30;99.90;;;;;;5029486;28;20060;-66
2021/05/25 03:36:49;;;;;;;4.82;1.30;;;9.30;99.90;;;;;;5029579;28;20041;-66
2021/05/25 03:39:15;;;;;;;3.67;1.15;;;9.20;99.90;;;;;;5014429;28;20044;-66
2021/05/25 03:41:41;;;;;;;1.75;0.80;;;9.20;99.90;;;;;;5025802;28;20042;-66
2021/05/25 03:44:12;;;;;;;2.40;0.98;;;9.10;99.90;;;;;;5023916;28;20064;-66
2021/05/25 03:46:39;;;;;;;3.95;0.80;;;9.10;99.90;;;;;;5029641;28;20135;-66
2021/05/25 03:49:05;;;;;;;5.10;1.17;;;9.00;99.90;;;;;;5024232;28;20034;-66
2021/05/25 03:51:31;;;;;;;3.70;1.00;;;9.00;99.90;;;;;;5029761;28;20362;-66
2021/05/25 03:53:57;;;;;;;2.28;0.90;;;8.90;99.90;;;;;;5027151;28;20044;-66
2021/05/25 03:56:30;;;;;;;1.20;1.00;;;8.90;99.90;;;;;;5014721;28;20038;-66
2021/05/25 03:58:56;;;;;;;1.73;1.00;;;8.90;99.90;;;;;;5029228;28;20065;-65
2021/05/25 04:01:27;;;;;;;6.40;1.40;;;8.90;99.90;;;;;;5022875;28;20033;-65
2021/05/25 04:03:54;;;;;;;3.53;1.30;;;8.90;99.90;;;;;;5031670;28;20111;-65
2021/05/25 04:06:21;;;;;;;1.83;0.80;;;8.90;99.90;;;;;;5027004;28;20543;-65
2021/05/25 04:08:48;;;;;;;4.72;1.33;;;8.80;99.90;;;;;;5034563;28;20421;-65
2021/05/25 04:11:16;;;;;;;2.97;1.20;;;8.80;99.90;;;;;;5024368;28;20091;-65
2021/05/25 04:13:43;;;;;;;3.72;1.30;;;8.80;99.90;;;;;;5029092;28;20120;-65
2021/05/25 04:16:11;;;;;;;5.15;1.40;;;8.70;99.90;;;;;;5022086;28;20033;-65
2021/05/25 04:18:37;;;;;;;5.05;1.27;;;8.70;99.90;;;;;;5031981;28;20482;-65
2021/05/25 04:21:03;;;;;;;3.10;1.33;;;8.80;99.90;;;;;;5026569;28;20033;-65
2021/05/25 04:23:29;;;;;;;3.00;1.50;;;8.80;99.90;;;;;;5029267;28;20455;-65
2021/05/25 04:25:55;;;;;;;2.78;1.52;;;8.70;99.90;;;;;;5025257;28;20038;-65
2021/05/25 04:28:21;;;;;;;3.33;1.38;;;8.80;99.90;;;;;;5033399;28;20123;-65
2021/05/25 04:30:47;;;;;;;4.82;1.15;;;8.80;99.90;;;;;;5028055;28;20396;-65
2021/05/25 04:33:14;;;;;;;2.85;1.17;;;8.70;99.90;;;;;;5032468;28;20066;-65
2021/05/25 04:35:40;;;;;;;5.85;2.95;;;8.70;99.90;;;;;;5031324;28;20054;-65
2021/05/25 04:38:06;;;;;;;5.43;1.98;;;8.70;99.90;;;;;;5024430;28;20488;-65
2021/05/25 04:40:33;;;;;;;3.05;1.30;;;8.70;99.90;;;;;;5029845;28;20143;-65
2021/05/25 04:42:59;;;;;;;3.42;1.05;;;8.80;99.90;;;;;;5024992;28;20041;-65
2021/05/25 04:45:26;;;;;;;3.15;1.48;;;8.80;99.90;;;;;;5032613;28;20046;-65
2021/05/25 04:47:52;;;;;;;5.85;1.30;;;8.80;99.90;;;;;;5030770;28;20114;-65
2021/05/25 04:50:19;;;;;;;4.82;1.10;;;8.80;99.90;;;;;;5032444;28;20058;-65
2021/05/25 04:52:46;;;;;;;5.32;1.45;;;8.80;99.90;;;;;;5031776;28;20029;-65
2021/05/25 04:55:15;;;;;;;6.47;1.10;;;8.80;99.90;;;;;;5031296;28;20107;-65
2021/05/25 04:57:42;;;;;;;3.97;1.80;;;8.90;99.90;;;;;;5024300;28;20048;-65
2021/05/25 05:00:11;;;;;;;5.68;1.92;;;8.80;99.90;;;;;;5032849;28;20067;-65
2021/05/25 05:02:37;;;;;;;5.30;1.35;;;8.80;99.90;;;;;;5033824;28;20467;-66
2021/05/25 05:05:04;;;;;;;4.53;1.42;;;8.90;99.90;;;;;;5030555;28;20440;-66
2021/05/25 05:07:30;;;;;;;6.05;2.05;;;8.90;99.90;;;;;;5022865;28;20045;-65
2021/05/25 05:09:56;;;;;;;6.75;1.98;;;8.90;99.90;;;;;;5030025;28;20448;-65
2021/05/25 05:12:22;;;;;;;4.13;1.83;;;9.00;99.90;;;;;;5026086;28;20510;-65
2021/05/25 05:14:48;;;;;;;4.07;2.10;;;8.90;99.90;;;;;;5029837;28;20474;-65
2021/05/25 05:17:14;;;;;;;6.97;2.00;;;8.90;99.90;;;;;;5032301;28;20042;-65
2021/05/25 05:19:40;;;;;;;4.38;1.40;;;8.90;99.90;;;;;;5030183;28;20076;-65
2021/05/25 05:22:06;;;;;;;4.80;1.58;;;8.90;99.90;;;;;;5034973;28;20045;-65
2021/05/25 05:24:31;;;;;;;4.57;1.55;;;8.90;99.90;;;;;;5022500;28;20091;-65
2021/05/25 05:26:57;;;;;;;8.18;1.73;;;9.00;99.90;;;;;;5029717;28;20444;-65
2021/05/25 05:29:23;;;;;;;5.25;2.03;;;9.00;99.90;;;;;;5020497;28;20502;-65
2021/05/25 05:31:49;;;;;;;3.22;1.55;;;9.00;99.90;;;;;;5029385;28;20053;-65
2021/05/25 05:34:15;;;;;;;3.83;1.63;;;9.00;99.90;;;;;;5023228;28;20045;-65
2021/05/25 05:36:41;;;;;;;4.68;1.73;;;9.00;99.90;;;;;;5039424;28;20034;-65
2021/05/25 05:39:07;;;;;;;2.55;1.30;;;9.00;99.90;;;;;;5030253;28;20095;-65
2021/05/25 05:41:32;;;;;;;5.18;1.85;;;9.00;99.90;;;;;;5023827;28;20038;-65
2021/05/25 05:43:58;;;;;;;4.97;2.00;;;8.90;99.90;;;;;;5025509;28;20469;-65
2021/05/25 05:46:24;;;;;;;4.43;1.60;;;9.00;99.90;;;;;;5041605;28;20047;-65
2021/05/25 05:48:51;;;;;;;8.52;1.90;;;8.90;99.90;;;;;;5023176;28;20046;-65
2021/05/25 05:51:18;;;;;;;7.00;5.13;;;8.90;99.90;;;;;;5032087;28;20455;-65
2021/05/25 05:53:44;;;;;;;9.80;3.25;;;8.90;99.90;;;;;;5030163;28;20029;-65
2021/05/25 05:56:10;;;;;;;2.92;2.20;;;8.90;99.90;;;;;;5022792;28;20044;-65
2021/05/25 05:58:36;;;;;;;6.47;2.08;;;8.80;99.90;;;;;;5029592;28;20037;-65
2021/05/25 06:01:02;;;;;;;7.57;2.65;;;8.90;99.90;;;;;;5021652;28;20041;-65
2021/05/25 06:03:28;;;;;;;7.20;2.30;;;8.90;99.90;;;;;;5033854;28;20444;-65
2021/05/25 06:05:54;;;;;;;4.82;2.28;;;9.00;99.90;;;;;;5020287;28;20077;-65
2021/05/25 06:08:21;;;;;;;6.38;2.65;;;8.90;99.90;;;;;;5026750;28;20047;-65
2021/05/25 06:10:53;;;;;;;4.20;2.33;;;8.90;99.90;;;;;;5024197;28;20375;-66
2021/05/25 06:13:25;;;;;;;3.83;2.40;;;9.00;99.90;;;;;;5032241;28;20033;-65
2021/05/25 06:15:55;;;;;;;6.10;2.42;;;9.00;99.90;;;;;;5023165;28;20048;-65
2021/05/25 06:18:21;;;;;;;7.20;3.13;;;9.00;99.90;;;;;;5034657;28;20457;-65
2021/05/25 06:20:47;;;;;;;9.75;3.60;;;9.00;99.90;;;;;;5026087;28;20053;-65
2021/05/25 06:23:13;;;;;;;6.72;3.67;;;9.00;99.90;;;;;;5029613;28;20480;-65
2021/05/25 06:25:41;;;;;;;6.55;4.03;;;9.10;99.90;;;;;;5020845;28;20048;-65
2021/05/25 06:28:07;;;;;;;6.72;4.03;;;9.10;99.90;;;;;;5028926;28;20405;-65
2021/05/25 06:30:33;;;;;;;5.70;4.40;;;9.10;99.90;;;;;;5030483;28;20630;-65
2021/05/25 06:32:59;;;;;;;6.13;3.38;;;9.20;99.90;;;;;;5027949;28;20102;-65
2021/05/25 06:35:26;;;;;;;5.57;3.20;;;9.30;99.90;;;;;;5026053;28;20045;-65
2021/05/25 06:37:52;;;;;;;4.30;3.05;;;9.30;99.90;;;;;;5025826;28;20136;-65
2021/05/25 06:40:18;;;;;;;5.05;3.30;;;9.30;99.90;;;;;;5034073;28;20044;-65
2021/05/25 06:42:44;;;;;;;5.45;3.58;;;9.40;99.90;;;;;;5029127;28;20033;-65
2021/05/25 06:45:11;;;;;;;4.90;3.08;;;9.50;99.90;;;;;;5035491;28;20061;-65
2021/05/25 06:47:37;;;;;;;7.32;4.60;;;9.50;99.90;;;;;;5025969;28;20045;-65
2021/05/25 06:50:05;;;;;;;88.20;18.17;;;9.50;99.90;;;;;;5033227;28;20041;-65
2021/05/25 06:52:31;;;;;;;4.95;4.05;;;9.50;99.90;;;;;;5020569;28;20053;-65
2021/05/25 06:54:59;;;;;;;6.47;5.15;;;9.50;99.90;;;;;;5031326;28;20421;-65
2021/05/25 06:57:25;;;;;;;6.88;6.00;;;9.50;99.90;;;;;;5025834;28;20052;-65
2021/05/25 06:59:51;;;;;;;10.15;6.22;;;9.50;99.90;;;;;;5025045;28;20072;-65
2021/05/25 07:02:17;;;;;;;11.85;8.60;;;9.50;99.90;;;;;;5026426;28;20124;-65
2021/05/25 07:04:42;;;;;;;12.75;9.02;;;9.50;99.90;;;;;;5029014;28;20045;-65
2021/05/25 07:07:08;;;;;;;19.13;10.95;;;9.50;99.90;;;;;;5026046;28;20059;-65
2021/05/25 07:09:34;;;;;;;16.63;11.43;;;9.50;99.90;;;;;;5023916;28;20042;-65
2021/05/25 07:12:03;;;;;;;15.90;11.63;;;9.50;99.90;;;;;;5022527;28;20042;-65
2021/05/25 07:14:29;;;;;;;12.63;9.63;;;9.50;99.90;;;;;;5031551;28;20057;-65
2021/05/25 07:16:55;;;;;;;10.57;8.95;;;9.60;99.90;;;;;;5027498;28;20061;-65
2021/05/25 07:19:22;;;;;;;7.40;6.70;;;9.60;99.90;;;;;;5018889;28;20038;-65
2021/05/25 07:21:48;;;;;;;8.90;6.38;;;9.60;99.90;;;;;;5027124;28;20041;-65
2021/05/25 07:24:13;;;;;;;8.82;5.88;;;9.70;99.90;;;;;;5023668;28;20110;-65
2021/05/25 07:26:40;;;;;;;6.25;5.20;;;9.70;99.90;;;;;;5028478;28;20472;-65
2021/05/25 07:29:07;;;;;;;8.57;7.47;;;9.80;99.90;;;;;;5026966;28;20042;-65
2021/05/25 07:31:33;;;;;;;12.25;8.43;;;9.80;99.90;;;;;;5027122;28;20103;-65
2021/05/25 07:33:59;;;;;;;16.20;12.40;;;9.70;99.90;;;;;;5026078;28;20056;-65
2021/05/25 07:36:26;;;;;;;18.60;14.43;;;9.80;99.90;;;;;;5030883;28;20042;-65
2021/05/25 07:38:52;;;;;;;20.15;16.38;;;9.80;99.90;;;;;;5025589;28;20106;-64
2021/05/25 07:41:17;;;;;;;25.80;18.75;;;9.80;99.90;;;;;;5029161;28;20045;-65
2021/05/25 07:43:44;;;;;;;23.00;18.42;;;9.80;99.90;;;;;;5027681;28;20091;-64
2021/05/25 07:46:11;;;;;;;24.75;19.90;;;9.70;99.90;;;;;;5037058;28;20033;-64
2021/05/25 07:48:37;;;;;;;25.35;21.25;;;9.70;99.90;;;;;;5024907;28;20117;-64
2021/05/25 07:51:04;;;;;;;23.98;20.13;;;9.70;99.90;;;;;;5030434;28;20044;-64
2021/05/25 07:53:29;;;;;;;23.67;21.15;;;9.70;99.90;;;;;;5027434;28;20046;-64
2021/05/25 07:55:56;;;;;;;27.90;23.23;;;9.70;99.90;;;;;;5031629;28;20049;-64
2021/05/25 07:58:22;;;;;;;31.10;24.33;;;9.60;99.90;;;;;;5032560;28;20041;-64
2021/05/25 08:00:47;;;;;;;24.65;20.77;;;9.60;99.90;;;;;;5026902;28;20049;-64
2021/05/25 08:03:13;;;;;;;24.65;21.10;;;9.60;99.90;;;;;;5033306;28;20059;-64
2021/05/25 08:05:39;;;;;;;24.35;19.20;;;9.60;99.90;;;;;;5022023;28;20068;-64
2021/05/25 08:08:08;;;;;;;24.27;18.73;;;9.60;99.90;;;;;;5031207;28;20060;-64
2021/05/25 08:10:34;;;;;;;18.92;14.20;;;9.60;99.90;;;;;;5026641;28;20043;-65
2021/05/25 08:13:00;;;;;;;10.55;9.45;;;9.60;99.90;;;;;;5032518;28;20088;-64
2021/05/25 08:15:28;;;;;;;13.05;9.38;;;9.60;99.90;;;;;;5024079;28;20437;-64
2021/05/25 08:20:26;;;;;;;12.52;8.57;;;9.70;99.90;;;;;;5028772;28;20052;-65
2021/05/25 08:22:57;;;;;;;7.35;5.57;;;9.80;99.90;;;;;;5027747;28;20041;-65
2021/05/25 08:25:26;;;;;;;8.20;6.03;;;9.90;99.90;;;;;;5026629;28;20069;-65
2021/05/25 08:27:53;;;;;;;7.32;5.25;;;10.00;99.90;;;;;;5052186;28;20050;-63
2021/05/25 08:30:21;;;;;;;8.45;5.53;;;10.00;99.90;;;;;;5023487;28;20406;-64
2021/05/25 08:32:49;;;;;;;5.15;4.55;;;10.10;99.90;;;;;;5031648;28;20136;-64
2021/05/25 08:35:16;;;;;;;6.22;4.18;;;10.20;99.90;;;;;;5036145;28;20522;-64
2021/05/25 08:37:48;;;;;;;26.55;6.72;;;10.40;99.90;;;;;;5031084;28;20096;-64
2021/05/25 08:40:16;;;;;;;2.85;2.40;;;10.50;99.90;;;;;;5024134;28;20048;-64
2021/05/25 08:42:41;;;;;;;3.65;3.13;;;10.70;99.90;;;;;;5028913;28;20133;-64
2021/05/25 08:45:10;;;;;;;5.32;2.63;;;10.90;99.90;;;;;;5041452;28;20556;-64
2021/05/25 08:47:37;;;;;;;5.35;2.75;;;11.20;99.90;;;;;;5021750;28;20041;-64
2021/05/25 08:50:09;;;;;;;3.78;2.58;;;11.40;99.90;;;;;;5027222;28;20054;-63
2021/05/25 08:52:35;;;;;;;2.33;1.83;;;11.70;99.90;;;;;;5024779;28;20091;-64
2021/05/25 08:55:03;;;;;;;2.97;1.05;;;12.00;99.90;;;;;;5032038;28;20046;-64
2021/05/25 08:57:28;;;;;;;2.38;1.52;;;12.30;99.90;;;;;;5020665;28;20040;-64
2021/05/25 08:59:54;;;;;;;2.78;1.30;;;12.50;99.90;;;;;;5030911;28;20445;-64
2021/05/25 09:02:21;;;;;;;65.88;5.47;;;12.70;99.90;;;;;;5030040;28;20037;-64
2021/05/25 09:05:04;;;;;;;3.22;1.02;;;13.10;99.90;;;;;;5033019;28;20045;-64
2021/05/25 09:07:37;;;;;;;2.15;0.85;;;13.40;99.90;;;;;;5013486;28;20049;-64
2021/05/25 09:10:07;;;;;;;1.23;0.68;;;13.60;99.90;;;;;;5030451;28;20044;-63
2021/05/25 09:12:58;;;;;;;1.77;0.80;;;13.70;99.90;;;;;;5020949;28;20053;-63
2021/05/25 09:15:50;;;;;;;2.55;0.52;;;13.90;99.90;;;;;;5033785;28;20127;-64
2021/05/25 09:18:28;;;;;;;0.88;0.68;;;14.10;99.90;;;;;;5031346;28;20048;-64
2021/05/25 09:20:58;;;;;;;0.88;0.55;;;14.10;99.90;;;;;;5034798;28;20045;-64
2021/05/25 09:23:44;;;;;;;1.13;0.70;;;13.90;99.90;;;;;;5029090;28;20061;-64
2021/05/25 09:26:14;;;;;;;1.20;0.65;;;13.60;99.90;;;;;;5035159;28;20523;-64
2021/05/25 09:29:07;;;;;;;1.30;0.57;;;13.40;99.90;;;;;;5028926;28;20045;-64
2021/05/25 09:31:39;;;;;;;0.65;0.47;;;13.30;99.90;;;;;;5032777;28;20521;-64
2021/05/25 09:34:23;;;;;;;0.75;0.43;;;13.10;99.90;;;;;;5021600;28;20041;-64
2021/05/25 09:37:08;;;;;;;1.00;0.50;;;13.00;99.60;;;;;;5031538;28;20520;-64
2021/05/25 09:39:40;;;;;;;1.63;0.50;;;12.80;99.90;;;;;;5026807;28;20055;-64
2021/05/25 09:42:13;;;;;;;1.55;0.65;;;12.70;99.90;;;;;;5040064;28;20427;-64
2021/05/25 09:45:08;;;;;;;3.28;0.80;;;12.50;99.90;;;;;;5022684;28;20037;-64
2021/05/25 09:47:41;;;;;;;1.48;0.88;;;12.50;99.90;;;;;;5025737;28;20096;-64
2021/05/25 09:50:10;;;;;;;2.03;0.80;;;12.40;99.90;;;;;;5028117;28;20045;-64
2021/05/25 09:52:56;;;;;;;2.65;0.73;;;12.40;99.90;;;;;;5038131;28;20048;-64
2021/05/25 09:55:21;;;;;;;0.85;0.50;;;12.50;99.90;;;;;;5024554;28;20033;-64
2021/05/25 09:57:51;;;;;;;1.92;0.80;;;12.50;99.90;;;;;;5030228;28;20295;-64
2021/05/25 10:00:32;;;;;;;1.60;0.73;;;12.50;99.90;;;;;;5022595;28;20405;-64
2021/05/25 10:03:05;;;;;;;3.33;0.90;;;12.60;99.90;;;;;;5035270;28;20049;-64
2021/05/25 10:05:31;;;;;;;2.40;0.82;;;12.50;99.90;;;;;;5027979;28;20503;-64
2021/05/25 10:08:01;;;;;;;1.55;0.68;;;12.50;99.60;;;;;;5030962;28;20428;-64
2021/05/25 10:10:30;;;;;;;1.98;0.60;;;12.30;98.90;;;;;;5025491;28;20033;-64
2021/05/25 10:12:57;;;;;;;2.28;0.90;;;12.00;99.10;;;;;;5029403;28;20413;-64
2021/05/25 10:15:25;;;;;;;4.30;1.20;;;11.80;99.70;;;;;;5032280;28;20346;-64
2021/05/25 10:20:32;;;;;;;2.25;1.30;;;11.60;99.90;;;;;;5024586;28;20049;-64
2021/05/25 10:22:58;;;;;;;3.67;1.70;;;11.60;99.90;;;;;;5030646;28;20112;-64
2021/05/25 10:25:25;;;;;;;3.03;1.80;;;11.60;99.90;;;;;;5027176;28;20535;-64
2021/05/25 10:27:52;;;;;;;3.53;1.80;;;11.70;99.90;;;;;;5028341;28;20325;-64
2021/05/25 10:30:24;;;;;;;3.22;2.17;;;11.70;99.90;;;;;;5025748;28;20037;-64
2021/05/25 10:33:12;;;;;;;3.17;2.17;;;11.90;99.90;;;;;;5030678;28;20049;-64
2021/05/25 10:36:04;;;;;;;2.63;2.38;;;12.00;99.90;;;;;;5028950;28;20045;-64
2021/05/25 10:38:34;;;;;;;2.13;1.90;;;12.10;99.90;;;;;;5023483;28;20512;-64
2021/05/25 10:41:05;;;;;;;2.70;2.10;;;12.20;99.90;;;;;;5020853;28;20053;-65
2021/05/25 10:43:45;;;;;;;4.35;2.50;;;12.10;99.90;;;;;;5024374;28;20453;-65
2021/05/25 10:46:10;;;;;;;2.63;2.42;;;12.20;99.60;;;;;;5031735;28;20045;-65
2021/05/25 10:49:25;;;;;;;3.88;3.17;;;12.30;99.90;;;;;;5025200;28;20428;-65
2021/05/25 10:51:51;;;;;;;3.00;2.70;;;12.40;99.90;;;;;;5021119;28;20117;-65
2021/05/25 10:54:49;;;;;;;3.10;2.65;;;12.40;99.90;;;;;;5027480;28;20064;-65
2021/05/25 10:57:33;;;;;;;3.90;2.28;;;12.40;99.80;;;;;;5023445;28;20088;-65
2021/05/25 11:00:01;;;;;;;2.70;1.23;;;12.30;98.50;;;;;;5030645;28;20033;-65
2021/05/25 11:02:52;;;;;;;4.57;1.88;;;12.00;99.50;;;;;;5026079;28;20478;-65
2021/05/25 11:05:34;;;;;;;4.32;1.27;;;11.70;99.40;;;;;;5024733;28;20049;-65
2021/05/25 11:08:12;;;;;;;3.55;0.95;;;11.30;98.60;;;;;;5022771;28;20042;-65
2021/05/25 11:10:44;;;;;;;4.40;1.08;;;11.00;99.90;;;;;;5036381;28;20444;-66
2021/05/25 11:13:22;;;;;;;4.25;1.00;;;10.80;99.90;;;;;;5033380;28;20131;-65
2021/05/25 11:16:14;;;;;;;4.28;0.70;;;10.70;99.90;;;;;;5036103;28;20191;-65
2021/05/25 11:18:46;;;;;;;1.80;0.50;;;10.50;99.90;;;;;;5034145;28;20048;-65
2021/05/25 11:24:33;;;;;;;2.40;0.73;;;10.40;99.90;;;;;;5037579;28;20056;-65
2021/05/25 11:27:23;;;;;;;2.25;0.63;;;10.30;99.90;;;;;;5030472;28;20064;-65
2021/05/25 11:29:55;;;;;;;2.10;0.70;;;10.20;99.90;;;;;;5037934;28;20064;-66
2021/05/25 11:32:29;;;;;;;3.00;0.90;;;10.10;99.90;;;;;;5032295;28;20409;-66
2021/05/25 11:34:56;;;;;;;;;;;10.10;99.90;;;;;;5039423;28;20065;-66
2021/05/25 11:37:23;;;;;;;1.42;0.65;;;10.10;99.90;;;;;;5036396;28;20008;-66
2021/05/25 11:39:50;;;;;;;2.55;0.88;;;10.10;99.90;;;;;;5043754;28;20079;-66
2021/05/25 11:42:29;;;;;;;3.05;0.90;;;10.10;99.90;;;;;;5034586;28;20064;-66
2021/05/25 11:44:55;;;;;;;2.17;0.85;;;10.20;99.90;;;;;;5032877;28;20033;-66
2021/05/25 11:47:21;;;;;;;1.42;0.73;;;10.30;99.90;;;;;;5036425;28;20124;-66
2021/05/25 11:49:47;;;;;;;1.38;0.85;;;10.40;99.90;;;;;;5032525;28;20591;-66
2021/05/25 11:52:21;;;;;;;4.82;1.13;;;10.40;99.90;;;;;;5028096;28;20535;-66
2021/05/25 11:54:49;;;;;;;2.90;0.90;;;10.50;99.90;;;;;;5023747;28;20045;-66
2021/05/25 11:57:27;;;;;;;2.22;0.98;;;10.50;99.90;;;;;;5043942;28;20128;-66
2021/05/25 11:59:54;;;;;;;2.95;1.00;;;10.60;99.90;;;;;;5040485;28;20045;-66
2021/05/25 12:02:28;;;;;;;2.40;0.70;;;10.70;99.90;;;;;;5039778;28;20317;-66
2021/05/25 12:05:23;;;;;;;3.97;1.00;;;10.70;99.90;;;;;;5032480;28;20511;-66
2021/05/25 12:07:58;;;;;;;4.13;1.02;;;10.90;99.90;;;;;;5032567;28;20099;-64
2021/05/25 12:10:27;;;;;;;1.85;0.80;;;11.00;99.90;;;;;;5035642;28;20481;-64
2021/05/25 12:13:01;;;;;;;3.25;1.00;;;11.10;99.90;;;;;;5035072;28;20063;-64
2021/05/25 12:15:27;;;;;;;3.67;0.82;;;11.20;99.90;;;;;;5028137;28;20037;-64
2021/05/25 12:17:58;;;;;;;2.75;0.90;;;11.40;99.90;;;;;;5040363;28;20175;-64
2021/05/25 12:20:39;;;;;;;3.38;0.90;;;11.60;99.90;;;;;;5027998;28;20041;-64
2021/05/25 12:23:11;;;;;;;2.47;0.70;;;11.70;99.90;;;;;;5033086;28;20076;-64
2021/05/25 12:25:38;;;;;;;2.00;0.80;;;11.80;99.90;;;;;;5026502;28;20341;-64
2021/05/25 12:28:07;;;;;;;2.92;1.00;;;11.90;99.90;;;;;;5037181;28;20049;-64
2021/05/25 12:30:34;;;;;;;3.38;1.05;;;12.00;99.90;;;;;;5034308;28;20475;-64
2021/05/25 12:33:00;;;;;;;1.45;0.88;;;12.00;99.90;;;;;;5032841;28;20420;-64
2021/05/25 12:35:28;;;;;;;1.50;0.70;;;11.90;99.90;;;;;;5025732;28;20143;-64
2021/05/25 12:38:21;;;;;;;2.35;0.70;;;11.90;99.90;;;;;;5038547;28;20117;-64
2021/05/25 12:40:58;;;;;;;1.55;0.73;;;11.80;99.40;;;;;;5026640;28;20065;-64
2021/05/25 12:43:30;;;;;;;3.15;0.75;;;11.80;99.90;;;;;;5035364;28;20417;-64
2021/05/25 12:46:09;;;;;;;3.45;0.85;;;11.70;99.90;;;;;;5023893;28;20406;-64
2021/05/25 12:48:40;;;;;;;2.45;0.80;;;11.70;97.30;;;;;;5032538;28;20491;-64
2021/05/25 12:51:10;;;;;;;2.13;1.08;;;11.60;99.70;;;;;;5028726;28;20358;-64
2021/05/25 12:53:50;;;;;;;2.65;1.10;;;11.70;99.90;;;;;;5039136;28;20124;-64
2021/05/25 12:56:21;;;;;;;3.38;1.10;;;11.90;99.90;;;;;;5025209;28;20104;-65
2021/05/25 12:58:49;;;;;;;1.65;1.02;;;11.90;99.90;;;;;;5034626;28;20144;-65
2021/05/25 13:01:21;;;;;;;2.78;0.95;;;11.90;99.90;;;;;;5029709;28;20038;-65
2021/05/25 13:03:47;;;;;;;2.30;1.00;;;11.90;99.90;;;;;;5040218;28;20048;-65
2021/05/25 13:06:37;;;;;;;4.00;1.00;;;11.80;99.90;;;;;;5024575;28;20503;-65
2021/05/25 13:09:11;;;;;;;3.67;1.90;;;11.70;99.90;;;;;;5038542;28;20041;-65